Wetterdaten: Woche 05.09.16 - 11.09.16 (KW36)
Datum Zeit Temperatur Luftfeuchte Luftdruck Niederschlag Windrichtung Sonnenschein Solar Wind
05.09.2016 00:00 14,9 C 96 % 1015,3 hPa 0,2 l/m W-SW 0,00 h 0 W/m 19,8 km/h (4 Bft)
05.09.2016 01:00 14,7 C 96 % 1015,9 hPa 0,6 l/m W-SW 0,00 h 0 W/m 17,7 km/h (3 Bft)
05.09.2016 02:00 14,6 C 96 % 1015,8 hPa 0,6 l/m W-SW 0,00 h 0 W/m 22,5 km/h (4 Bft)
05.09.2016 03:00 14,6 C 96 % 1015,4 hPa 0,6 l/m SW 0,00 h 0 W/m 24,4 km/h (4 Bft)
05.09.2016 04:00 14,2 C 96 % 1015,6 hPa 0,0 l/m W-SW 0,00 h 0 W/m 20,6 km/h (4 Bft)
05.09.2016 05:00 14,2 C 96 % 1015,6 hPa 0,0 l/m W-SW 0,00 h 0 W/m 14,1 km/h (3 Bft)
05.09.2016 06:00 14,4 C 96 % 1016,0 hPa 0,0 l/m W-SW 0,00 h 15 W/m 13,7 km/h (3 Bft)
05.09.2016 07:00 14,3 C 96 % 1016,4 hPa 0,0 l/m W-SW 0,00 h 25 W/m 14,0 km/h (3 Bft)
05.09.2016 08:00 14,5 C 95 % 1016,8 hPa 0,0 l/m W-SW 0,00 h 52 W/m 11,3 km/h (2 Bft)
05.09.2016 09:00 14,8 C 93 % 1017,2 hPa 0,0 l/m W-SW 0,00 h 154 W/m 12,0 km/h (2 Bft)
05.09.2016 10:00 15,5 C 88 % 1017,7 hPa 0,0 l/m W 0,42 h 322 W/m 11,7 km/h (2 Bft)
05.09.2016 11:00 16,5 C 80 % 1018,1 hPa 0,0 l/m W-NW 0,92 h 483 W/m 17,2 km/h (3 Bft)
05.09.2016 12:00 17,6 C 74 % 1018,2 hPa 0,0 l/m W 1,00 h 710 W/m 17,8 km/h (3 Bft)
05.09.2016 13:00 18,4 C 69 % 1018,4 hPa 0,0 l/m W 0,83 h 693 W/m 18,9 km/h (3 Bft)
05.09.2016 14:00 18,4 C 68 % 1018,6 hPa 0,0 l/m W 0,33 h 349 W/m 18,2 km/h (3 Bft)
05.09.2016 15:00 18,2 C 68 % 1019,0 hPa 0,0 l/m W-NW 0,25 h 311 W/m 12,8 km/h (3 Bft)
05.09.2016 16:00 17,5 C 71 % 1019,3 hPa 0,0 l/m W-NW 0,00 h 134 W/m 9,3 km/h (2 Bft)
05.09.2016 17:00 17,6 C 72 % 1019,5 hPa 0,0 l/m W-NW 0,08 h 155 W/m 7,0 km/h (2 Bft)
05.09.2016 18:00 17,5 C 72 % 1019,7 hPa 0,0 l/m W 0,00 h 80 W/m 7,1 km/h (2 Bft)
05.09.2016 19:00 16,6 C 78 % 1020,3 hPa 0,0 l/m N 0,00 h 16 W/m 0,8 km/h (0 Bft)
05.09.2016 20:00 15,8 C 83 % 1020,8 hPa 0,0 l/m N 0,00 h 0 W/m 1,6 km/h (1 Bft)
05.09.2016 21:00 15,2 C 85 % 1021,4 hPa 0,0 l/m W 0,00 h 0 W/m 0,8 km/h (0 Bft)
05.09.2016 22:00 15,1 C 83 % 1021,7 hPa 0,0 l/m N 0,00 h 0 W/m 2,8 km/h (1 Bft)
05.09.2016 23:00 14,3 C 88 % 1022,3 hPa 0,0 l/m N 0,00 h 0 W/m 0,0 km/h (0 Bft)
06.09.2016 00:00 13,3 C 92 % 1022,6 hPa 0,0 l/m N 0,00 h 0 W/m 0,0 km/h (0 Bft)
06.09.2016 01:00 13,4 C 93 % 1022,7 hPa 0,0 l/m N 0,00 h 0 W/m 0,0 km/h (0 Bft)
06.09.2016 02:00 13,6 C 94 % 1022,8 hPa 0,0 l/m W 0,00 h 0 W/m 1,1 km/h (0 Bft)
06.09.2016 03:00 13,2 C 95 % 1023,0 hPa 0,0 l/m N 0,00 h 0 W/m 0,0 km/h (0 Bft)
06.09.2016 04:00 11,8 C 96 % 1023,2 hPa 0,0 l/m N 0,00 h 0 W/m 0,0 km/h (0 Bft)
06.09.2016 05:00 11,1 C 97 % 1023,3 hPa 0,0 l/m N 0,00 h 0 W/m 0,0 km/h (0 Bft)
06.09.2016 06:00 10,5 C 97 % 1023,7 hPa 0,0 l/m N 0,00 h 7 W/m 0,0 km/h (0 Bft)
06.09.2016 07:00 10,5 C 98 % 1024,0 hPa 0,0 l/m N 0,42 h 56 W/m 0,0 km/h (0 Bft)
06.09.2016 08:00 11,3 C 98 % 1024,2 hPa 0,0 l/m N 0,75 h 198 W/m 0,0 km/h (0 Bft)
06.09.2016 09:00 14,4 C 92 % 1024,3 hPa 0,0 l/m W 1,00 h 408 W/m 2,9 km/h (1 Bft)
06.09.2016 10:00 16,9 C 82 % 1024,3 hPa 0,0 l/m O-NO 0,75 h 460 W/m 10,6 km/h (2 Bft)
06.09.2016 11:00 16,9 C 80 % 1024,2 hPa 0,0 l/m O-NO 0,17 h 301 W/m 9,1 km/h (2 Bft)
06.09.2016 12:00 18,6 C 73 % 1023,9 hPa 0,0 l/m O 0,50 h 522 W/m 13,4 km/h (3 Bft)
06.09.2016 13:00 20,2 C 66 % 1023,5 hPa 0,0 l/m O-NO 0,50 h 516 W/m 14,1 km/h (3 Bft)
06.09.2016 14:00 21,1 C 61 % 1023,0 hPa 0,0 l/m O 0,50 h 477 W/m 16,2 km/h (3 Bft)
06.09.2016 15:00 21,5 C 58 % 1022,6 hPa 0,0 l/m O-NO 0,75 h 602 W/m 16,0 km/h (3 Bft)
06.09.2016 16:00 21,7 C 57 % 1022,3 hPa 0,0 l/m O-SO 0,67 h 380 W/m 15,3 km/h (3 Bft)
06.09.2016 17:00 21,9 C 55 % 1022,3 hPa 0,0 l/m O-NO 1,00 h 342 W/m 14,8 km/h (3 Bft)
06.09.2016 18:00 20,9 C 59 % 1022,3 hPa 0,0 l/m O-NO 0,33 h 114 W/m 9,0 km/h (2 Bft)
06.09.2016 19:00 19,5 C 64 % 1022,4 hPa 0,0 l/m O 0,08 h 21 W/m 6,2 km/h (2 Bft)
06.09.2016 20:00 16,0 C 81 % 1022,4 hPa 0,0 l/m N 0,00 h 0 W/m 0,0 km/h (0 Bft)
06.09.2016 21:00 14,1 C 88 % 1022,7 hPa 0,0 l/m N 0,00 h 0 W/m 0,0 km/h (0 Bft)
06.09.2016 22:00 13,4 C 91 % 1022,5 hPa 0,0 l/m N 0,00 h 0 W/m 0,0 km/h (0 Bft)
06.09.2016 23:00 12,6 C 92 % 1022,1 hPa 0,0 l/m N 0,00 h 0 W/m 0,1 km/h (0 Bft)
07.09.2016 00:00 11,9 C 92 % 1021,7 hPa 0,0 l/m N 0,00 h 0 W/m 0,3 km/h (0 Bft)
07.09.2016 01:00 12,5 C 88 % 1021,2 hPa 0,0 l/m O 0,00 h 0 W/m 6,8 km/h (2 Bft)
07.09.2016 02:00 13,5 C 81 % 1020,7 hPa 0,0 l/m O 0,00 h 0 W/m 13,6 km/h (3 Bft)
07.09.2016 03:00 13,1 C 84 % 1020,0 hPa 0,0 l/m O-NO 0,00 h 0 W/m 12,6 km/h (3 Bft)
07.09.2016 04:00 12,5 C 88 % 1019,3 hPa 0,0 l/m O-NO 0,00 h 0 W/m 10,2 km/h (2 Bft)
07.09.2016 05:00 12,3 C 90 % 1018,6 hPa 0,0 l/m O-NO 0,00 h 0 W/m 7,8 km/h (2 Bft)
07.09.2016 06:00 11,9 C 92 % 1018,3 hPa 0,0 l/m O-NO 0,00 h 7 W/m 6,5 km/h (2 Bft)
07.09.2016 07:00 11,8 C 93 % 1018,3 hPa 0,0 l/m O-NO 0,08 h 39 W/m 8,0 km/h (2 Bft)
07.09.2016 08:00 13,0 C 92 % 1018,3 hPa 0,0 l/m O-NO 0,08 h 125 W/m 15,3 km/h (3 Bft)
07.09.2016 09:00 14,4 C 87 % 1018,3 hPa 0,0 l/m O-NO 0,67 h 281 W/m 17,4 km/h (3 Bft)
07.09.2016 10:00 15,5 C 81 % 1018,4 hPa 0,0 l/m O-NO 0,83 h 463 W/m 18,0 km/h (3 Bft)
07.09.2016 11:00 17,3 C 75 % 1018,0 hPa 0,0 l/m O 0,92 h 690 W/m 17,0 km/h (3 Bft)
07.09.2016 12:00 19,0 C 71 % 1017,5 hPa 0,0 l/m O 1,00 h 750 W/m 10,5 km/h (2 Bft)
07.09.2016 13:00 20,8 C 65 % 1017,0 hPa 0,0 l/m O-NO 1,00 h 744 W/m 12,5 km/h (3 Bft)
07.09.2016 14:00 22,5 C 60 % 1016,5 hPa 0,0 l/m O-SO 1,00 h 699 W/m 10,1 km/h (2 Bft)
07.09.2016 15:00 23,2 C 58 % 1016,1 hPa 0,0 l/m O 1,00 h 605 W/m 8,3 km/h (2 Bft)
07.09.2016 16:00 23,7 C 57 % 1015,5 hPa 0,0 l/m O-SO 1,00 h 472 W/m 8,2 km/h (2 Bft)
07.09.2016 17:00 23,8 C 57 % 1015,1 hPa 0,0 l/m O-SO 1,00 h 310 W/m 8,4 km/h (2 Bft)
07.09.2016 18:00 22,8 C 60 % 1014,6 hPa 0,0 l/m O 0,50 h 119 W/m 11,7 km/h (2 Bft)
07.09.2016 19:00 20,7 C 69 % 1014,3 hPa 0,0 l/m O 0,00 h 16 W/m 3,3 km/h (1 Bft)
07.09.2016 20:00 17,2 C 85 % 1014,4 hPa 0,0 l/m N 0,00 h 0 W/m 0,0 km/h (0 Bft)
07.09.2016 21:00 15,9 C 89 % 1014,4 hPa 0,0 l/m N 0,00 h 0 W/m 0,1 km/h (0 Bft)
07.09.2016 22:00 15,2 C 92 % 1014,0 hPa 0,0 l/m N 0,00 h 0 W/m 0,4 km/h (0 Bft)
07.09.2016 23:00 14,6 C 94 % 1013,5 hPa 0,0 l/m N 0,00 h 0 W/m 0,0 km/h (0 Bft)
08.09.2016 00:00 13,6 C 96 % 1013,5 hPa 0,0 l/m N 0,00 h 0 W/m 0,0 km/h (0 Bft)
08.09.2016 01:00 12,8 C 97 % 1013,5 hPa 0,0 l/m N 0,00 h 0 W/m 0,0 km/h (0 Bft)
08.09.2016 02:00 12,3 C 97 % 1013,1 hPa 0,0 l/m N 0,00 h 0 W/m 0,0 km/h (0 Bft)
08.09.2016 03:00 11,5 C 97 % 1013,0 hPa 0,0 l/m N 0,00 h 0 W/m 0,0 km/h (0 Bft)
08.09.2016 04:00 11,0 C 98 % 1012,8 hPa 0,0 l/m N 0,00 h 0 W/m 0,0 km/h (0 Bft)
08.09.2016 05:00 10,4 C 98 % 1013,0 hPa 0,0 l/m N 0,00 h 0 W/m 0,0 km/h (0 Bft)
08.09.2016 06:00 10,2 C 98 % 1013,1 hPa 0,0 l/m N 0,00 h 6 W/m 0,0 km/h (0 Bft)
08.09.2016 07:00 10,7 C 99 % 1013,5 hPa 0,0 l/m N 0,08 h 37 W/m 0,0 km/h (0 Bft)
08.09.2016 08:00 12,5 C 100 % 1013,7 hPa 0,0 l/m N 0,00 h 115 W/m 0,0 km/h (0 Bft)
08.09.2016 09:00 15,0 C 100 % 1013,7 hPa 0,0 l/m O-SO 0,75 h 324 W/m 4,7 km/h (1 Bft)
08.09.2016 10:00 18,2 C 92 % 1013,6 hPa 0,0 l/m S-SW 0,92 h 498 W/m 12,6 km/h (3 Bft)
08.09.2016 11:00 21,1 C 80 % 1013,3 hPa 0,0 l/m S-SW 1,00 h 650 W/m 12,9 km/h (3 Bft)
08.09.2016 12:00 23,7 C 69 % 1012,8 hPa 0,0 l/m S 1,00 h 711 W/m 14,9 km/h (3 Bft)
08.09.2016 13:00 25,1 C 56 % 1012,5 hPa 0,0 l/m W 1,00 h 720 W/m 21,0 km/h (4 Bft)
08.09.2016 14:00 26,0 C 53 % 1012,4 hPa 0,0 l/m SW 1,00 h 678 W/m 18,1 km/h (3 Bft)
08.09.2016 15:00 26,7 C 54 % 1012,1 hPa 0,0 l/m W-SW 1,00 h 585 W/m 15,0 km/h (3 Bft)
08.09.2016 16:00 26,7 C 56 % 1011,8 hPa 0,0 l/m W-SW 1,00 h 456 W/m 15,3 km/h (3 Bft)
08.09.2016 17:00 26,1 C 57 % 1011,6 hPa 0,0 l/m SW 1,00 h 305 W/m 14,9 km/h (3 Bft)
08.09.2016 18:00 24,9 C 60 % 1011,5 hPa 0,0 l/m SW 0,42 h 117 W/m 9,9 km/h (2 Bft)
08.09.2016 19:00 22,1 C 71 % 1011,6 hPa 0,0 l/m N 0,08 h 18 W/m 1,2 km/h (1 Bft)
08.09.2016 20:00 19,4 C 83 % 1012,1 hPa 0,0 l/m N 0,00 h 0 W/m 0,0 km/h (0 Bft)
08.09.2016 21:00 17,8 C 89 % 1012,5 hPa 0,0 l/m N 0,00 h 0 W/m 0,0 km/h (0 Bft)
08.09.2016 22:00 16,7 C 91 % 1012,9 hPa 0,0 l/m N 0,00 h 0 W/m 0,0 km/h (0 Bft)
08.09.2016 23:00 16,6 C 93 % 1013,4 hPa 0,0 l/m N 0,00 h 0 W/m 0,0 km/h (0 Bft)
09.09.2016 00:00 16,1 C 94 % 1013,8 hPa 0,0 l/m N 0,00 h 0 W/m 0,0 km/h (0 Bft)
09.09.2016 01:00 15,2 C 96 % 1014,1 hPa 0,0 l/m N 0,00 h 0 W/m 0,0 km/h (0 Bft)
09.09.2016 02:00 15,0 C 97 % 1014,1 hPa 0,0 l/m N 0,00 h 0 W/m 0,0 km/h (0 Bft)
09.09.2016 03:00 14,4 C 97 % 1014,1 hPa 0,0 l/m N 0,00 h 0 W/m 0,0 km/h (0 Bft)
09.09.2016 04:00 13,9 C 98 % 1014,3 hPa 0,0 l/m N 0,00 h 0 W/m 0,0 km/h (0 Bft)
09.09.2016 05:00 13,4 C 98 % 1014,4 hPa 0,0 l/m N 0,00 h 0 W/m 0,0 km/h (0 Bft)
09.09.2016 06:00 12,9 C 98 % 1014,5 hPa 0,0 l/m N 0,00 h 6 W/m 0,0 km/h (0 Bft)
09.09.2016 07:00 13,0 C 99 % 1015,0 hPa 0,0 l/m N 0,92 h 79 W/m 0,0 km/h (0 Bft)
09.09.2016 08:00 14,3 C 97 % 1015,1 hPa 0,0 l/m N 0,25 h 103 W/m 0,1 km/h (0 Bft)
09.09.2016 09:00 16,9 C 92 % 1015,3 hPa 0,0 l/m N 1,00 h 396 W/m 0,3 km/h (0 Bft)
09.09.2016 10:00 20,4 C 75 % 1015,3 hPa 0,0 l/m SW 0,92 h 499 W/m 2,8 km/h (1 Bft)
09.09.2016 11:00 22,9 C 66 % 1015,1 hPa 0,0 l/m SW 1,00 h 652 W/m 4,3 km/h (1 Bft)
09.09.2016 12:00 24,4 C 60 % 1014,6 hPa 0,0 l/m W-NW 1,00 h 715 W/m 5,4 km/h (1 Bft)
09.09.2016 13:00 25,7 C 54 % 1014,4 hPa 0,0 l/m W-NW 1,00 h 764 W/m 6,7 km/h (2 Bft)
09.09.2016 14:00 26,3 C 50 % 1014,1 hPa 0,0 l/m NO 1,00 h 673 W/m 8,4 km/h (2 Bft)
09.09.2016 15:00 26,8 C 47 % 1013,6 hPa 0,0 l/m O-NO 1,00 h 581 W/m 8,7 km/h (2 Bft)
09.09.2016 16:00 27,0 C 46 % 1013,3 hPa 0,0 l/m O 1,00 h 447 W/m 8,1 km/h (2 Bft)
09.09.2016 17:00 26,8 C 48 % 1013,1 hPa 0,0 l/m O-SO 1,00 h 284 W/m 9,1 km/h (2 Bft)
09.09.2016 18:00 25,7 C 51 % 1013,2 hPa 0,0 l/m O-SO 0,42 h 104 W/m 7,1 km/h (2 Bft)
09.09.2016 19:00 23,1 C 62 % 1013,3 hPa 0,0 l/m O-SO 0,08 h 16 W/m 2,1 km/h (1 Bft)
09.09.2016 20:00 19,0 C 79 % 1013,7 hPa 0,0 l/m N 0,00 h 0 W/m 0,0 km/h (0 Bft)
09.09.2016 21:00 18,0 C 83 % 1014,0 hPa 0,0 l/m N 0,00 h 0 W/m 0,8 km/h (0 Bft)
09.09.2016 22:00 17,6 C 83 % 1014,1 hPa 0,0 l/m O-SO 0,00 h 0 W/m 1,2 km/h (1 Bft)
09.09.2016 23:00 17,4 C 82 % 1014,1 hPa 0,0 l/m NO 0,00 h 0 W/m 6,5 km/h (2 Bft)
10.09.2016 00:00 17,2 C 80 % 1014,0 hPa 0,0 l/m N-NO 0,00 h 0 W/m 3,7 km/h (1 Bft)
10.09.2016 01:00 16,3 C 85 % 1014,0 hPa 0,0 l/m N-NO 0,00 h 0 W/m 2,0 km/h (1 Bft)
10.09.2016 02:00 16,0 C 85 % 1014,0 hPa 0,0 l/m N-NO 0,00 h 0 W/m 4,8 km/h (1 Bft)
10.09.2016 03:00 15,3 C 88 % 1014,0 hPa 0,0 l/m N 0,00 h 0 W/m 1,3 km/h (1 Bft)
10.09.2016 04:00 14,6 C 90 % 1014,0 hPa 0,0 l/m N 0,00 h 0 W/m 0,0 km/h (0 Bft)
10.09.2016 05:00 13,7 C 93 % 1014,1 hPa 0,0 l/m N 0,00 h 0 W/m 0,0 km/h (0 Bft)
10.09.2016 06:00 13,3 C 94 % 1014,2 hPa 0,0 l/m N-NO 0,00 h 6 W/m 0,7 km/h (0 Bft)
10.09.2016 07:00 13,4 C 95 % 1014,6 hPa 0,0 l/m N 0,58 h 59 W/m 0,1 km/h (0 Bft)
10.09.2016 08:00 15,1 C 91 % 1014,5 hPa 0,0 l/m N 0,83 h 184 W/m 0,0 km/h (0 Bft)
10.09.2016 09:00 18,1 C 81 % 1014,7 hPa 0,0 l/m N 1,00 h 376 W/m 2,0 km/h (1 Bft)
10.09.2016 10:00 20,7 C 75 % 1014,7 hPa 0,0 l/m N-NO 0,92 h 477 W/m 2,1 km/h (1 Bft)
10.09.2016 11:00 22,9 C 69 % 1014,4 hPa 0,0 l/m N-NO 1,00 h 620 W/m 5,1 km/h (1 Bft)
10.09.2016 12:00 24,3 C 65 % 1014,0 hPa 0,0 l/m O-SO 1,00 h 677 W/m 7,6 km/h (2 Bft)
10.09.2016 13:00 25,6 C 60 % 1013,5 hPa 0,0 l/m O-SO 0,92 h 648 W/m 11,7 km/h (2 Bft)
10.09.2016 14:00 26,6 C 54 % 1012,9 hPa 0,0 l/m O-NO 1,00 h 657 W/m 9,8 km/h (2 Bft)
10.09.2016 15:00 27,0 C 52 % 1012,5 hPa 0,0 l/m O 1,00 h 557 W/m 9,0 km/h (2 Bft)
10.09.2016 16:00 26,9 C 53 % 1012,1 hPa 0,0 l/m O 0,92 h 412 W/m 6,6 km/h (2 Bft)
10.09.2016 17:00 26,7 C 53 % 1011,8 hPa 0,0 l/m O-SO 1,00 h 279 W/m 5,3 km/h (1 Bft)
10.09.2016 18:00 25,9 C 57 % 1011,8 hPa 0,0 l/m N 0,42 h 100 W/m 3,1 km/h (1 Bft)
10.09.2016 19:00 21,9 C 76 % 1011,9 hPa 0,0 l/m N 0,08 h 18 W/m 0,0 km/h (0 Bft)
10.09.2016 20:00 19,7 C 82 % 1012,6 hPa 0,0 l/m N 0,00 h 0 W/m 0,0 km/h (0 Bft)
10.09.2016 21:00 18,4 C 88 % 1013,3 hPa 0,0 l/m N 0,00 h 0 W/m 0,0 km/h (0 Bft)
10.09.2016 22:00 17,6 C 92 % 1013,5 hPa 0,0 l/m N 0,00 h 0 W/m 0,0 km/h (0 Bft)
10.09.2016 23:00 16,9 C 94 % 1013,9 hPa 0,0 l/m N 0,00 h 0 W/m 0,5 km/h (0 Bft)
11.09.2016 00:00 16,5 C 95 % 1013,9 hPa 0,0 l/m N 0,00 h 0 W/m 0,0 km/h (0 Bft)
11.09.2016 01:00 16,0 C 96 % 1013,8 hPa 0,0 l/m N 0,00 h 0 W/m 0,0 km/h (0 Bft)
11.09.2016 02:00 15,2 C 97 % 1013,9 hPa 0,0 l/m N 0,00 h 0 W/m 0,0 km/h (0 Bft)
11.09.2016 03:00 14,7 C 97 % 1014,1 hPa 0,0 l/m N 0,00 h 0 W/m 0,0 km/h (0 Bft)
11.09.2016 04:00 14,1 C 98 % 1014,4 hPa 0,0 l/m N 0,00 h 0 W/m 0,0 km/h (0 Bft)
11.09.2016 05:00 13,6 C 98 % 1014,5 hPa 0,0 l/m N 0,00 h 0 W/m 0,0 km/h (0 Bft)
11.09.2016 06:00 13,2 C 98 % 1015,0 hPa 0,0 l/m N 0,00 h 6 W/m 0,0 km/h (0 Bft)
11.09.2016 07:00 13,3 C 98 % 1015,6 hPa 0,0 l/m N 0,50 h 52 W/m 0,0 km/h (0 Bft)
11.09.2016 08:00 14,3 C 98 % 1015,8 hPa 0,0 l/m N 0,83 h 171 W/m 0,0 km/h (0 Bft)
11.09.2016 09:00 17,3 C 93 % 1016,0 hPa 0,0 l/m O-SO 0,92 h 341 W/m 3,3 km/h (1 Bft)
11.09.2016 10:00 20,5 C 81 % 1016,3 hPa 0,0 l/m S 0,92 h 468 W/m 9,4 km/h (2 Bft)
11.09.2016 11:00 22,6 C 74 % 1016,2 hPa 0,0 l/m S 1,00 h 615 W/m 7,8 km/h (2 Bft)
11.09.2016 12:00 23,9 C 69 % 1015,9 hPa 0,0 l/m S-SW 1,00 h 677 W/m 6,6 km/h (2 Bft)
11.09.2016 13:00 25,3 C 63 % 1015,6 hPa 0,0 l/m S-SW 1,00 h 688 W/m 6,7 km/h (2 Bft)
11.09.2016 14:00 26,4 C 56 % 1015,1 hPa 0,0 l/m SO 1,00 h 647 W/m 7,6 km/h (2 Bft)
11.09.2016 15:00 27,2 C 53 % 1014,8 hPa 0,0 l/m SO 1,00 h 559 W/m 10,2 km/h (2 Bft)
11.09.2016 16:00 27,4 C 52 % 1014,3 hPa 0,0 l/m O-SO 1,00 h 429 W/m 6,4 km/h (2 Bft)
11.09.2016 17:00 27,1 C 52 % 1014,2 hPa 0,0 l/m O 1,00 h 270 W/m 10,7 km/h (2 Bft)
11.09.2016 18:00 26,1 C 54 % 1014,3 hPa 0,0 l/m O 0,33 h 94 W/m 9,7 km/h (2 Bft)
11.09.2016 19:00 23,2 C 69 % 1014,7 hPa 0,0 l/m N 0,08 h 18 W/m 1,5 km/h (1 Bft)
11.09.2016 20:00 20,2 C 81 % 1015,0 hPa 0,0 l/m N 0,00 h 0 W/m 0,0 km/h (0 Bft)
11.09.2016 21:00 18,9 C 86 % 1015,0 hPa 0,0 l/m N 0,00 h 0 W/m 0,0 km/h (0 Bft)
11.09.2016 22:00 18,0 C 89 % 1015,2 hPa 0,0 l/m N 0,00 h 0 W/m 0,0 km/h (0 Bft)
11.09.2016 23:00 17,2 C 92 % 1015,3 hPa 0,0 l/m N 0,00 h 0 W/m 0,0 km/h (0 Bft)
Min-Datum _ 06.09.16 09.09.16 08.09.16 - - - - 05.09.16
_ Min-Zeit 06:50 15:45 18:20 - - - - 17:00
Minimum _ 10,2 C 44 % 1011,4 hPa - - - - 0,0 km/h (0 Bft)
Max-Datum _ 11.09.16 08.09.16 06.09.16 05.09.16 - 05.09.16 05.09.16 05.09.16
_ Max-Zeit 16:40 08:10 08:35 01:40 - 10:20 13:45 02:55
Maximum _ 27,7 C 100 % 1024,4 hPa 0,6 l/m - 0,08 h 991 W/m 30,6 km/h
W-SW (5 Bft)
Durchschnitt _ 17,9 C 80 % 1016,3 hPa #2,0 l/m O-NO #61:25 h 346 W/m 5,9 km/h (2 Bft)